createdAt,value
2019-01-22T00:00:19.087Z,0
2019-01-22T00:01:19.057Z,0
2019-01-22T00:02:19.110Z,1.8
2019-01-22T00:03:19.111Z,1.8
2019-01-22T00:04:19.056Z,3.9
2019-01-22T00:05:19.053Z,3.9
2019-01-22T00:06:19.093Z,3.9
2019-01-22T00:07:24.497Z,3.9
2019-01-22T00:08:19.100Z,3.9
2019-01-22T00:09:19.055Z,3.9
2019-01-22T00:10:19.096Z,3.9
2019-01-22T00:11:19.128Z,6.6
2019-01-22T00:12:19.074Z,6.6
2019-01-22T00:13:19.162Z,6.6
2019-01-22T00:14:19.172Z,6.6
2019-01-22T00:15:19.040Z,6.6
2019-01-22T00:16:19.281Z,6.6
2019-01-22T00:17:19.087Z,6.6
2019-01-22T00:18:19.140Z,6.6
2019-01-22T00:19:19.084Z,6.6
2019-01-22T00:20:19.079Z,6.6
2019-01-22T00:21:19.088Z,6.6
2019-01-22T00:22:19.090Z,6.6
2019-01-22T00:23:19.139Z,6.6
2019-01-22T00:24:19.280Z,9.5
2019-01-22T00:25:19.157Z,6.6
2019-01-22T00:26:19.039Z,6.6
2019-01-22T00:27:19.089Z,9.5
2019-01-22T00:28:19.073Z,9.5
2019-01-22T00:29:19.145Z,6.6
2019-01-22T00:30:19.165Z,6.6
2019-01-22T00:31:19.032Z,3.9
2019-01-22T00:32:19.256Z,6.6
2019-01-22T00:33:19.123Z,3.9
2019-01-22T00:34:19.068Z,3.9
2019-01-22T00:35:19.090Z,3.9
2019-01-22T00:36:19.061Z,3.9
2019-01-22T00:37:19.050Z,1.8
2019-01-22T00:38:19.062Z,0
2019-01-22T00:39:19.078Z,0
2019-01-22T00:40:19.443Z,0
2019-01-22T00:41:19.057Z,3.9
2019-01-22T00:42:19.058Z,3.9
2019-01-22T00:43:19.144Z,0
2019-01-22T00:44:19.053Z,3.9
2019-01-22T00:45:19.066Z,6.6
2019-01-22T00:46:19.069Z,6.6
2019-01-22T00:47:19.039Z,9.5
2019-01-22T00:48:19.076Z,6.6
2019-01-22T00:49:19.410Z,6.6
2019-01-22T00:50:19.070Z,6.6
2019-01-22T00:51:19.115Z,6.6
2019-01-22T00:52:19.075Z,6.6
2019-01-22T00:53:19.021Z,3.9
2019-01-22T00:54:19.051Z,3.9
2019-01-22T00:55:19.060Z,3.9
2019-01-22T00:56:19.150Z,3.9
2019-01-22T00:57:19.475Z,1.8
2019-01-22T00:58:19.047Z,0
2019-01-22T00:59:19.020Z,0
2019-01-22T01:00:19.077Z,0
2019-01-22T01:01:19.052Z,0
2019-01-22T01:02:19.139Z,0
2019-01-22T01:03:19.072Z,1.8
2019-01-22T01:04:19.023Z,1.8
2019-01-22T01:05:19.331Z,1.8
2019-01-22T01:06:19.069Z,1.8
2019-01-22T01:07:19.130Z,1.8
2019-01-22T01:08:19.072Z,1.8
2019-01-22T01:09:19.274Z,0
2019-01-22T01:10:19.058Z,3.9
2019-01-22T01:11:19.055Z,1.8
2019-01-22T01:12:19.064Z,1.8
2019-01-22T01:13:19.414Z,1.8
2019-01-22T01:14:19.106Z,1.8
2019-01-22T01:15:19.024Z,3.9
2019-01-22T01:16:19.048Z,3.9
2019-01-22T01:17:19.062Z,3.9
2019-01-22T01:18:19.105Z,3.9
2019-01-22T01:19:19.053Z,3.9
2019-01-22T01:20:19.090Z,3.9
2019-01-22T01:21:19.241Z,3.9
2019-01-22T01:22:19.037Z,3.9
2019-01-22T01:23:19.140Z,3.9
2019-01-22T01:24:19.067Z,3.9
2019-01-22T01:25:20.874Z,3.9
2019-01-22T01:26:19.025Z,1.8
2019-01-22T01:27:19.061Z,1.8
2019-01-22T01:28:19.041Z,1.8
2019-01-22T01:29:19.222Z,1.8
2019-01-22T01:30:19.134Z,1.8
2019-01-22T01:31:19.020Z,1.8
2019-01-22T01:32:19.045Z,1.8
2019-01-22T01:33:19.044Z,1.8
2019-01-22T01:34:19.117Z,1.8
2019-01-22T01:35:19.048Z,3.9
2019-01-22T01:36:19.040Z,3.9
2019-01-22T01:37:19.012Z,3.9
2019-01-22T01:38:19.036Z,6.6
2019-01-22T01:39:19.035Z,3.9
2019-01-22T01:40:19.093Z,6.6
2019-01-22T01:41:19.058Z,3.9
2019-01-22T01:42:18.995Z,3.9
2019-01-22T01:43:19.042Z,0
2019-01-22T01:44:19.101Z,1.8
2019-01-22T01:45:19.113Z,1.8
2019-01-22T01:46:19.039Z,3.9
2019-01-22T01:47:19.013Z,1.8
2019-01-22T01:48:19.055Z,1.8
2019-01-22T01:49:19.091Z,3.9
2019-01-22T01:50:19.072Z,3.9
2019-01-22T01:51:19.037Z,3.9
2019-01-22T01:52:19.047Z,3.9
2019-01-22T01:53:25.124Z,3.9
2019-01-22T01:54:19.163Z,3.9
2019-01-22T01:55:19.026Z,3.9
2019-01-22T01:56:19.030Z,15.4
2019-01-22T01:57:19.022Z,6.6
2019-01-22T01:58:19.019Z,3.9
2019-01-22T01:59:19.066Z,3.9
2019-01-22T02:00:19.045Z,3.9
2019-01-22T02:01:19.109Z,3.9
2019-01-22T02:02:19.217Z,3.9
2019-01-22T02:03:19.029Z,1.8
2019-01-22T02:04:19.000Z,3.9
2019-01-22T02:05:19.069Z,1.8
2019-01-22T02:06:19.037Z,1.8
2019-01-22T02:07:19.031Z,1.8
2019-01-22T02:08:19.115Z,3.9
2019-01-22T02:09:19.029Z,3.9
2019-01-22T02:10:19.539Z,3.9
2019-01-22T02:11:19.014Z,6.6
2019-01-22T02:12:19.026Z,9.5
2019-01-22T02:13:19.014Z,9.5
2019-01-22T02:14:19.040Z,6.6
2019-01-22T02:15:19.046Z,9.5
2019-01-22T02:16:19.129Z,12.4
2019-01-22T02:17:19.026Z,9.5
2019-01-22T02:18:19.210Z,12.4
2019-01-22T02:19:19.021Z,12.4
2019-01-22T02:20:19.015Z,12.4
2019-01-22T02:21:19.085Z,12.4
2019-01-22T02:22:19.028Z,12.4
2019-01-22T02:23:19.028Z,9.5
2019-01-22T02:24:19.031Z,12.4
2019-01-22T02:25:19.038Z,15.4
2019-01-22T02:26:18.983Z,9.5
2019-01-22T02:27:19.068Z,9.5
2019-01-22T02:28:19.038Z,9.5
2019-01-22T02:29:19.015Z,6.6
2019-01-22T02:30:19.067Z,6.6
2019-01-22T02:31:19.057Z,3.9
2019-01-22T02:32:19.099Z,3.9
2019-01-22T02:33:19.075Z,1.8
2019-01-22T02:34:18.994Z,1.8
2019-01-22T02:35:19.461Z,0
2019-01-22T02:36:18.994Z,1.8
2019-01-22T02:37:19.049Z,0
2019-01-22T02:38:19.025Z,0
2019-01-22T02:39:19.017Z,0
2019-01-22T02:40:19.014Z,0
2019-01-22T02:41:19.033Z,0
2019-01-22T02:42:19.039Z,0
2019-01-22T02:43:19.316Z,0
2019-01-22T02:44:19.012Z,0
2019-01-22T02:45:19.031Z,0
2019-01-22T02:46:19.101Z,0
2019-01-22T02:47:18.999Z,0
2019-01-22T02:48:18.978Z,0
2019-01-22T02:49:19.020Z,0
2019-01-22T02:50:19.072Z,6.6
2019-01-22T02:51:19.018Z,9.5
2019-01-22T02:52:18.999Z,3.9
2019-01-22T02:53:18.965Z,0
2019-01-22T02:54:19.058Z,0
2019-01-22T02:55:19.032Z,0
2019-01-22T02:56:19.022Z,0
2019-01-22T02:57:19.024Z,0
2019-01-22T02:58:18.993Z,0
2019-01-22T02:59:19.083Z,0
2019-01-22T03:00:19.339Z,0
2019-01-22T03:01:18.992Z,0
2019-01-22T03:02:19.010Z,0
2019-01-22T03:03:19.080Z,0
2019-01-22T03:04:18.977Z,0
2019-01-22T03:05:18.997Z,0
2019-01-22T03:06:18.996Z,0
2019-01-22T03:07:19.005Z,0
2019-01-22T03:08:19.335Z,0
2019-01-22T03:09:18.983Z,0
2019-01-22T03:10:19.004Z,0
2019-01-22T03:11:18.991Z,0
2019-01-22T03:12:19.041Z,0
2019-01-22T03:13:18.991Z,0
2019-01-22T03:14:18.990Z,0
2019-01-22T03:15:18.964Z,0
2019-01-22T03:16:18.990Z,1.8
2019-01-22T03:17:19.047Z,0
2019-01-22T03:18:18.984Z,0
2019-01-22T03:19:18.990Z,0
2019-01-22T03:20:18.984Z,1.8
2019-01-22T03:21:19.060Z,1.8
2019-01-22T03:22:18.987Z,0
2019-01-22T03:23:18.985Z,0
2019-01-22T03:24:19.011Z,0
2019-01-22T03:25:19.552Z,0
2019-01-22T03:26:18.973Z,0
2019-01-22T03:27:18.992Z,0
2019-01-22T03:28:18.999Z,0
2019-01-22T03:29:19.074Z,0
2019-01-22T03:30:19.071Z,0
2019-01-22T03:31:19.051Z,0
2019-01-22T03:32:19.018Z,0
2019-01-22T03:33:21.181Z,0
2019-01-22T03:34:19.002Z,0
2019-01-22T03:35:18.986Z,0
2019-01-22T03:36:18.976Z,0
2019-01-22T03:37:18.959Z,0
2019-01-22T03:38:19.057Z,0
2019-01-22T03:39:18.984Z,0
2019-01-22T03:40:18.987Z,0
2019-01-22T03:41:18.999Z,0
2019-01-22T03:42:19.255Z,0
2019-01-22T03:43:19.055Z,0
2019-01-22T03:44:18.967Z,0
2019-01-22T03:45:18.985Z,0
2019-01-22T03:46:18.976Z,0
2019-01-22T03:47:19.008Z,0
2019-01-22T03:48:19.060Z,0
2019-01-22T03:49:19.034Z,0
2019-01-22T03:50:19.149Z,0
2019-01-22T03:51:18.960Z,0
2019-01-22T03:52:18.962Z,0
2019-01-22T03:53:18.994Z,0
2019-01-22T03:54:18.990Z,0
2019-01-22T03:55:18.977Z,1.8
2019-01-22T03:56:18.971Z,1.8
2019-01-22T03:57:19.051Z,1.8
2019-01-22T03:58:19.039Z,1.8
2019-01-22T03:59:19.300Z,1.8
2019-01-22T04:00:18.973Z,3.9
2019-01-22T04:01:18.971Z,3.9
2019-01-22T04:02:18.973Z,3.9
2019-01-22T04:03:19.047Z,3.9
2019-01-22T04:04:18.941Z,9.5
2019-01-22T04:05:18.974Z,1.8
2019-01-22T04:06:18.956Z,1.8
2019-01-22T04:07:19.106Z,0
2019-01-22T04:08:19.048Z,0
2019-01-22T04:09:18.946Z,0
2019-01-22T04:10:18.996Z,0
2019-01-22T04:11:18.961Z,0
2019-01-22T04:12:19.033Z,0
2019-01-22T04:13:18.964Z,0
2019-01-22T04:14:18.975Z,0
2019-01-22T04:15:18.940Z,0
2019-01-22T04:16:19.226Z,1.8
2019-01-22T04:17:18.959Z,48.3
2019-01-22T04:18:18.965Z,9.5
2019-01-22T04:19:18.967Z,6.6
2019-01-22T04:20:18.988Z,6.6
2019-01-22T04:21:18.965Z,3.9
2019-01-22T04:22:19.045Z,3.9
2019-01-22T04:23:18.949Z,0
2019-01-22T04:24:19.166Z,0
2019-01-22T04:25:18.984Z,0
2019-01-22T04:26:18.924Z,0
2019-01-22T04:27:19.030Z,0
2019-01-22T04:28:19.047Z,1.8
2019-01-22T04:29:18.961Z,3.9
2019-01-22T04:30:18.987Z,6.6
2019-01-22T04:31:18.926Z,6.6
2019-01-22T04:32:19.019Z,6.6
2019-01-22T04:33:19.194Z,6.6
2019-01-22T04:34:18.956Z,6.6
2019-01-22T04:35:18.952Z,6.6
2019-01-22T04:36:18.935Z,6.6
2019-01-22T04:37:18.959Z,6.6
2019-01-22T04:38:18.949Z,6.6
2019-01-22T04:39:18.945Z,6.6
2019-01-22T04:40:19.025Z,6.6
2019-01-22T04:41:19.159Z,6.6
2019-01-22T04:42:18.908Z,6.6
2019-01-22T04:43:18.953Z,9.5
2019-01-22T04:44:18.967Z,6.6
2019-01-22T04:45:19.012Z,6.6
2019-01-22T04:46:18.968Z,6.6
2019-01-22T04:47:18.935Z,6.6
2019-01-22T04:48:18.941Z,9.5
2019-01-22T04:49:19.021Z,9.5
2019-01-22T04:50:19.300Z,6.6
2019-01-22T04:51:18.956Z,6.6
2019-01-22T04:52:18.948Z,6.6
2019-01-22T04:53:18.999Z,6.6
2019-01-22T04:54:18.967Z,3.9
2019-01-22T04:55:18.945Z,0
2019-01-22T04:56:19.038Z,0
2019-01-22T04:57:19.022Z,1.8
2019-01-22T04:58:18.959Z,0
2019-01-22T04:59:18.925Z,1.8
2019-01-22T05:00:18.960Z,0
2019-01-22T05:01:18.996Z,3.9
2019-01-22T05:02:18.926Z,6.6
2019-01-22T05:03:18.925Z,6.6
2019-01-22T05:04:18.931Z,3.9
2019-01-22T05:05:18.962Z,6.6
2019-01-22T05:06:19.115Z,3.9
2019-01-22T05:07:19.351Z,3.9
2019-01-22T05:08:18.952Z,3.9
2019-01-22T05:09:18.924Z,1.8
2019-01-22T05:10:18.944Z,1.8
2019-01-22T05:11:19.002Z,3.9
2019-01-22T05:12:18.932Z,1.8
2019-01-22T05:13:19.013Z,3.9
2019-01-22T05:14:19.009Z,3.9
2019-01-22T05:15:18.906Z,3.9
2019-01-22T05:16:18.933Z,3.9
2019-01-22T05:17:18.988Z,1.8
2019-01-22T05:18:18.955Z,3.9
2019-01-22T05:19:19.022Z,3.9
2019-01-22T05:20:18.903Z,1.8
2019-01-22T05:21:18.938Z,1.8
2019-01-22T05:22:18.953Z,3.9
2019-01-22T05:23:18.955Z,3.9
2019-01-22T05:24:20.049Z,3.9
2019-01-22T05:25:18.954Z,3.9
2019-01-22T05:26:18.906Z,3.9
2019-01-22T05:27:18.941Z,3.9
2019-01-22T05:28:18.928Z,3.9
2019-01-22T05:29:18.992Z,3.9
2019-01-22T05:30:18.969Z,1.8
2019-01-22T05:31:18.976Z,1.8
2019-01-22T05:32:18.915Z,3.9
2019-01-22T05:33:19.281Z,1.8
2019-01-22T05:34:18.973Z,0
2019-01-22T05:35:19.024Z,0
2019-01-22T05:36:19.029Z,0
2019-01-22T05:37:18.907Z,0
2019-01-22T05:38:18.983Z,0
2019-01-22T05:39:18.917Z,3.9
2019-01-22T05:40:18.936Z,3.9
2019-01-22T05:41:19.258Z,3.9
2019-01-22T05:42:18.904Z,6.6
2019-01-22T05:43:18.913Z,3.9
2019-01-22T05:44:18.937Z,6.6
2019-01-22T05:45:18.915Z,3.9
2019-01-22T05:46:18.935Z,6.6
2019-01-22T05:47:18.899Z,3.9
2019-01-22T05:48:18.884Z,6.6
2019-01-22T05:49:19.193Z,3.9
2019-01-22T05:50:18.949Z,3.9
2019-01-22T05:51:18.996Z,1.8
2019-01-22T05:52:21.403Z,1.8
2019-01-22T05:53:21.591Z,1.8
2019-01-22T05:54:26.417Z,3.9
2019-01-22T05:55:20.980Z,3.9
2019-01-22T05:56:21.651Z,6.6
2019-01-22T05:57:20.866Z,3.9
2019-01-22T05:58:21.220Z,6.6
2019-01-22T05:59:20.911Z,6.6
2019-01-22T06:00:19.348Z,3.9
2019-01-22T06:01:21.244Z,3.9
2019-01-22T06:02:20.551Z,3.9
2019-01-22T06:03:21.584Z,1.8
2019-01-22T06:04:21.548Z,3.9
2019-01-22T06:05:21.329Z,0
2019-01-22T06:06:19.533Z,0
2019-01-22T06:07:19.970Z,1.8
2019-01-22T06:08:20.381Z,1.8
2019-01-22T06:09:22.127Z,0
2019-01-22T06:10:19.714Z,0
2019-01-22T06:11:19.988Z,1.8
2019-01-22T06:12:20.074Z,3.9
2019-01-22T06:13:19.128Z,6.6
2019-01-22T06:14:21.357Z,6.6
2019-01-22T06:15:20.601Z,6.6
2019-01-22T06:16:20.535Z,9.5
2019-01-22T06:17:22.504Z,9.5
2019-01-22T06:18:20.785Z,6.6
2019-01-22T06:19:19.762Z,6.6
2019-01-22T06:20:20.869Z,12.4
2019-01-22T06:21:20.398Z,15.4
2019-01-22T06:22:19.424Z,12.4
2019-01-22T06:23:21.008Z,12.4
2019-01-22T06:24:21.322Z,18.3
2019-01-22T06:25:20.491Z,15.4
2019-01-22T06:26:20.375Z,12.4
2019-01-22T06:27:20.954Z,9.5
2019-01-22T06:28:20.270Z,6.6
2019-01-22T06:29:19.945Z,12.4
2019-01-22T06:30:19.319Z,9.5
2019-01-22T06:32:23.503Z,12.4
2019-01-22T06:33:23.614Z,12.4
2019-01-22T06:34:22.603Z,21.3
2019-01-22T06:35:22.974Z,18.3
2019-01-22T06:36:24.205Z,18.3
2019-01-22T06:37:23.543Z,18.3
2019-01-22T06:38:22.658Z,18.3
2019-01-22T06:39:23.561Z,15.4
2019-01-22T06:41:25.993Z,18.3
2019-01-22T06:42:24.561Z,12.4
2019-01-22T06:43:25.419Z,12.4
2019-01-22T06:44:24.877Z,12.4
2019-01-22T06:45:24.642Z,12.4
2019-01-22T06:46:25.711Z,15.4
2019-01-22T06:47:26.327Z,21.3
2019-01-22T06:48:25.243Z,21.3
2019-01-22T06:49:26.276Z,18.3
2019-01-22T06:51:31.194Z,15.4
2019-01-22T06:52:31.414Z,15.4
2019-01-22T06:53:32.123Z,15.4
2019-01-22T06:54:31.283Z,15.4
2019-01-22T06:55:30.606Z,15.4
2019-01-22T06:56:30.271Z,15.4
2019-01-22T06:57:32.564Z,15.4
2019-01-22T06:58:30.869Z,15.4
2019-01-22T06:59:32.249Z,15.4
2019-01-22T07:00:32.568Z,15.4
2019-01-22T07:01:31.829Z,15.4
2019-01-22T07:02:31.327Z,15.4
2019-01-22T07:03:29.860Z,15.4
2019-01-22T07:04:32.657Z,12.4
2019-01-22T07:05:30.937Z,12.4
2019-01-22T07:06:32.030Z,12.4
2019-01-22T07:07:33.258Z,12.4
2019-01-22T07:08:31.656Z,9.5
2019-01-22T07:09:31.426Z,9.5
2019-01-22T07:10:29.842Z,9.5
2019-01-22T07:11:30.457Z,12.4
2019-01-22T07:12:31.900Z,12.4
2019-01-22T07:13:32.039Z,12.4
2019-01-22T07:14:30.930Z,12.4
2019-01-22T07:15:31.368Z,15.4
2019-01-22T07:16:32.549Z,15.4
2019-01-22T07:17:31.345Z,15.4
2019-01-22T07:18:31.619Z,15.4
2019-01-22T07:19:43.379Z,15.4
2019-01-22T07:20:32.015Z,15.4
2019-01-22T07:21:30.952Z,18.3
2019-01-22T07:23:34.242Z,18.3
2019-01-22T07:24:36.235Z,15.4
2019-01-22T07:25:35.688Z,12.4
2019-01-22T07:26:34.550Z,12.4
2019-01-22T07:27:34.693Z,12.4
2019-01-22T07:28:34.817Z,9.5
2019-01-22T07:29:35.621Z,6.6
2019-01-22T07:30:38.191Z,6.6
2019-01-22T07:31:34.115Z,6.6
2019-01-22T07:32:34.100Z,9.5
2019-01-22T07:33:34.520Z,9.5
2019-01-22T07:34:34.301Z,12.4
2019-01-22T07:35:34.784Z,9.5
2019-01-22T07:36:32.803Z,12.4
2019-01-22T07:37:32.872Z,12.4
2019-01-22T07:38:32.839Z,12.4
2019-01-22T07:39:32.899Z,9.5
2019-01-22T07:40:32.917Z,9.5
2019-01-22T07:41:32.825Z,12.4
2019-01-22T07:42:32.920Z,9.5
2019-01-22T07:43:32.841Z,9.5
2019-01-22T07:44:32.842Z,9.5
2019-01-22T07:45:32.830Z,6.6
2019-01-22T07:46:32.835Z,9.5
2019-01-22T07:47:32.842Z,9.5
2019-01-22T07:48:32.835Z,9.5
2019-01-22T07:49:32.820Z,12.4
2019-01-22T07:50:32.842Z,15.4
2019-01-22T07:51:32.954Z,15.4
2019-01-22T07:52:32.804Z,15.4
2019-01-22T07:53:42.755Z,12.4
2019-01-22T07:54:32.917Z,12.4
2019-01-22T07:55:32.827Z,12.4
2019-01-22T07:56:32.825Z,15.4
2019-01-22T07:57:32.822Z,15.4
2019-01-22T07:58:32.879Z,15.4
2019-01-22T07:59:32.940Z,15.4
2019-01-22T08:00:32.821Z,18.3
2019-01-22T08:01:32.826Z,18.3
2019-01-22T08:02:32.817Z,18.3
2019-01-22T08:03:32.791Z,12.4
2019-01-22T08:04:32.924Z,18.3
2019-01-22T08:05:32.821Z,18.3
2019-01-22T08:06:32.814Z,18.3
2019-01-22T08:07:32.838Z,21.3
2019-01-22T08:08:32.815Z,21.3
2019-01-22T08:09:32.885Z,21.3
2019-01-22T08:10:32.838Z,24.3
2019-01-22T08:11:32.839Z,21.3
2019-01-22T08:12:32.846Z,21.3
2019-01-22T08:13:32.901Z,21.3
2019-01-22T08:14:32.793Z,18.3
2019-01-22T08:15:32.810Z,18.3
2019-01-22T08:16:32.918Z,21.3
2019-01-22T08:17:32.829Z,21.3
2019-01-22T08:18:32.825Z,18.3
2019-01-22T08:19:32.829Z,18.3
2019-01-22T08:20:32.857Z,18.3
2019-01-22T08:21:32.825Z,18.3
2019-01-22T08:22:32.825Z,18.3
2019-01-22T08:23:32.845Z,18.3
2019-01-22T08:24:32.863Z,18.3
2019-01-22T08:25:32.856Z,18.3
2019-01-22T08:26:32.878Z,15.4
2019-01-22T08:27:32.834Z,15.4
2019-01-22T08:28:32.812Z,15.4
2019-01-22T08:29:32.807Z,15.4
2019-01-22T08:30:32.890Z,15.4
2019-01-22T08:31:32.781Z,15.4
2019-01-22T08:32:32.830Z,15.4
2019-01-22T08:33:32.828Z,15.4
2019-01-22T08:34:32.814Z,12.4
2019-01-22T08:35:32.901Z,12.4
2019-01-22T08:36:32.797Z,12.4
2019-01-22T08:37:32.855Z,12.4
2019-01-22T08:38:32.794Z,12.4
2019-01-22T08:39:32.796Z,12.4
2019-01-22T08:40:32.834Z,12.4
2019-01-22T08:41:32.785Z,9.5
2019-01-22T08:42:32.817Z,9.5
2019-01-22T08:43:32.859Z,12.4
2019-01-22T08:44:32.802Z,12.4
2019-01-22T08:45:32.780Z,12.4
2019-01-22T08:46:32.852Z,9.5
2019-01-22T08:47:32.866Z,9.5
2019-01-22T08:48:32.817Z,12.4
2019-01-22T08:49:32.794Z,12.4
2019-01-22T08:50:32.814Z,12.4
2019-01-22T08:51:32.831Z,12.4
2019-01-22T08:52:32.836Z,12.4
2019-01-22T08:53:32.810Z,12.4
2019-01-22T08:54:32.810Z,12.4
2019-01-22T08:55:32.799Z,15.4
2019-01-22T08:56:33.802Z,12.4
2019-01-22T08:57:37.431Z,9.5
2019-01-22T08:58:32.792Z,9.5
2019-01-22T08:59:32.801Z,9.5
2019-01-22T09:00:34.185Z,9.5
2019-01-22T09:01:36.808Z,12.4
2019-01-22T09:02:32.875Z,6.6
2019-01-22T09:03:32.789Z,6.6
2019-01-22T09:04:32.875Z,6.6
2019-01-22T09:05:32.826Z,3.9
2019-01-22T09:06:32.872Z,6.6
2019-01-22T09:07:32.829Z,3.9
2019-01-22T09:08:32.809Z,3.9
2019-01-22T09:09:32.778Z,6.6
2019-01-22T09:10:32.870Z,6.6
2019-01-22T09:11:32.810Z,6.6
2019-01-22T09:12:32.829Z,6.6
2019-01-22T09:13:32.822Z,6.6
2019-01-22T09:14:32.841Z,3.9
2019-01-22T09:15:32.793Z,3.9
2019-01-22T09:16:32.816Z,3.9
2019-01-22T09:17:32.819Z,6.6
2019-01-22T09:18:32.889Z,3.9
2019-01-22T09:19:32.805Z,3.9
2019-01-22T09:20:32.835Z,3.9
2019-01-22T09:21:32.803Z,3.9
2019-01-22T09:22:32.821Z,6.6
2019-01-22T09:23:32.871Z,3.9
2019-01-22T09:24:32.833Z,3.9
2019-01-22T09:25:32.800Z,3.9
2019-01-22T09:26:32.892Z,3.9
2019-01-22T09:27:32.809Z,0
2019-01-22T09:28:32.823Z,0
2019-01-22T09:29:37.021Z,0
2019-01-22T09:30:32.868Z,0
2019-01-22T09:31:32.782Z,1.8
2019-01-22T09:32:32.810Z,0
2019-01-22T09:33:32.811Z,0
2019-01-22T09:34:32.913Z,0
2019-01-22T09:35:32.815Z,0
2019-01-22T09:36:32.836Z,3.9
2019-01-22T09:37:32.822Z,3.9
2019-01-22T09:38:32.798Z,1.8
2019-01-22T09:39:32.826Z,1.8
2019-01-22T09:40:32.834Z,0
2019-01-22T09:41:32.835Z,1.8
2019-01-22T09:42:32.808Z,3.9
2019-01-22T09:43:32.827Z,0
2019-01-22T09:44:32.853Z,0
2019-01-22T09:45:32.888Z,1.8
2019-01-22T09:46:32.961Z,1.8
2019-01-22T09:47:32.799Z,1.8
2019-01-22T09:48:32.810Z,0
2019-01-22T09:49:32.808Z,0
2019-01-22T09:50:34.182Z,0
2019-01-22T09:51:32.863Z,0
2019-01-22T09:52:32.777Z,0
2019-01-22T09:53:32.785Z,0
2019-01-22T09:54:32.802Z,0
2019-01-22T09:55:32.918Z,0
2019-01-22T09:56:32.837Z,0
2019-01-22T09:57:32.814Z,1.8
2019-01-22T09:58:32.790Z,1.8
2019-01-22T09:59:32.816Z,0
2019-01-22T10:00:32.871Z,0
2019-01-22T10:01:32.797Z,0
2019-01-22T10:02:32.830Z,0
2019-01-22T10:03:32.781Z,0
2019-01-22T10:04:32.820Z,1.8
2019-01-22T10:05:32.803Z,0
2019-01-22T10:06:32.840Z,0
2019-01-22T10:07:32.897Z,1.8
2019-01-22T10:08:32.762Z,1.8
2019-01-22T10:09:32.768Z,1.8
2019-01-22T10:10:32.809Z,0
2019-01-22T10:11:32.942Z,0
2019-01-22T10:12:32.798Z,0
2019-01-22T10:13:32.800Z,0
2019-01-22T10:14:32.763Z,0
2019-01-22T10:15:32.801Z,0
2019-01-22T10:16:32.879Z,6.6
2019-01-22T10:17:32.874Z,6.6
2019-01-22T10:18:32.807Z,6.6
2019-01-22T10:19:32.821Z,9.5
2019-01-22T10:20:32.778Z,1.8
2019-01-22T10:21:32.833Z,3.9
2019-01-22T10:22:32.895Z,3.9
2019-01-22T10:23:32.814Z,1.8
2019-01-22T10:24:32.810Z,9.5
2019-01-22T10:25:32.768Z,6.6
2019-01-22T10:26:32.796Z,6.6
2019-01-22T10:27:32.878Z,9.5
2019-01-22T10:28:32.884Z,6.6
2019-01-22T10:29:32.782Z,3.9
2019-01-22T10:30:32.789Z,6.6
2019-01-22T10:31:32.799Z,1.8
2019-01-22T10:32:32.803Z,6.6
2019-01-22T10:33:32.874Z,9.5
2019-01-22T10:34:32.821Z,6.6
2019-01-22T10:35:32.824Z,6.6
2019-01-22T10:36:32.788Z,3.9
2019-01-22T10:37:32.805Z,1.8
2019-01-22T10:38:32.879Z,3.9
2019-01-22T10:39:32.809Z,3.9
2019-01-22T10:40:32.808Z,9.5
2019-01-22T10:41:32.791Z,6.6
2019-01-22T10:42:32.797Z,12.4
2019-01-22T10:43:32.881Z,9.5
2019-01-22T10:44:32.799Z,9.5
2019-01-22T10:45:32.798Z,6.6
2019-01-22T10:46:32.832Z,6.6
2019-01-22T10:47:32.769Z,6.6
2019-01-22T10:48:32.906Z,9.5
2019-01-22T10:49:32.875Z,9.5
2019-01-22T10:50:37.170Z,6.6
2019-01-22T10:51:32.803Z,6.6
2019-01-22T10:52:32.791Z,3.9
2019-01-22T10:53:32.808Z,1.8
2019-01-22T10:54:32.896Z,3.9
2019-01-22T10:55:37.534Z,0
2019-01-22T10:56:32.893Z,0
2019-01-22T10:57:32.826Z,0
2019-01-22T10:58:32.784Z,3.9
2019-01-22T10:59:32.806Z,6.6
2019-01-22T11:00:32.924Z,3.9
2019-01-22T11:01:32.902Z,1.8
2019-01-22T11:02:32.823Z,1.8
2019-01-22T11:03:32.776Z,1.8
2019-01-22T11:04:32.801Z,3.9
2019-01-22T11:05:32.872Z,1.8
2019-01-22T11:06:32.824Z,0
2019-01-22T11:07:32.847Z,0
2019-01-22T11:08:32.796Z,3.9
2019-01-22T11:09:32.867Z,9.5
2019-01-22T11:10:32.827Z,3.9
2019-01-22T11:11:32.890Z,6.6
2019-01-22T11:12:32.838Z,6.6
2019-01-22T11:13:32.873Z,6.6
2019-01-22T11:14:32.795Z,3.9
2019-01-22T11:15:32.831Z,3.9
2019-01-22T11:16:32.807Z,1.8
2019-01-22T11:17:32.850Z,1.8
2019-01-22T11:18:32.793Z,1.8
2019-01-22T11:19:32.769Z,0
2019-01-22T11:20:32.783Z,0
2019-01-22T11:21:32.799Z,3.9
2019-01-22T11:22:32.898Z,3.9
2019-01-22T11:23:32.832Z,1.8
2019-01-22T11:24:32.819Z,0
2019-01-22T11:25:32.769Z,1.8
2019-01-22T11:26:32.811Z,0
2019-01-22T11:27:32.840Z,1.8
2019-01-22T11:28:32.902Z,3.9
2019-01-22T11:29:32.781Z,3.9
2019-01-22T11:30:32.784Z,1.8
2019-01-22T11:31:32.795Z,1.8
2019-01-22T11:32:32.856Z,0
2019-01-22T11:33:34.724Z,3.9
2019-01-22T11:34:32.796Z,3.9
2019-01-22T11:35:32.821Z,6.6
2019-01-22T11:36:32.779Z,3.9
2019-01-22T11:37:32.868Z,0
2019-01-22T11:38:32.796Z,9.5
2019-01-22T11:39:32.758Z,3.9
2019-01-22T11:40:33.773Z,3.9
2019-01-22T11:41:32.791Z,3.9
2019-01-22T11:42:32.840Z,3.9
2019-01-22T11:43:32.860Z,3.9
2019-01-22T11:44:32.805Z,6.6
2019-01-22T11:45:32.802Z,6.6
2019-01-22T11:46:32.879Z,9.5
2019-01-22T11:47:32.768Z,6.6
2019-01-22T11:48:32.813Z,6.6
2019-01-22T11:49:32.869Z,6.6
2019-01-22T11:50:32.810Z,6.6
2019-01-22T11:51:32.816Z,3.9
2019-01-22T11:52:32.809Z,9.5
2019-01-22T11:53:32.792Z,6.6
2019-01-22T11:54:32.872Z,3.9
2019-01-22T11:55:32.810Z,3.9
2019-01-22T11:56:32.795Z,15.4
2019-01-22T11:57:32.805Z,6.6
2019-01-22T11:58:32.765Z,6.6
2019-01-22T11:59:32.886Z,3.9
2019-01-22T12:00:32.802Z,3.9
2019-01-22T12:01:32.816Z,12.4
2019-01-22T12:02:33.489Z,9.5
2019-01-22T12:03:32.779Z,12.4
2019-01-22T12:04:32.768Z,6.6
2019-01-22T12:05:32.821Z,3.9
2019-01-22T12:06:42.673Z,9.5
2019-01-22T12:07:32.810Z,6.6
2019-01-22T12:08:32.807Z,15.4
2019-01-22T12:09:32.845Z,15.4
2019-01-22T12:10:32.808Z,9.5
2019-01-22T12:11:32.796Z,9.5
2019-01-22T12:12:32.796Z,1.8
2019-01-22T12:13:32.789Z,3.9
2019-01-22T12:14:32.839Z,9.5
2019-01-22T12:15:32.885Z,3.9
2019-01-22T12:16:32.815Z,9.5
2019-01-22T12:17:32.792Z,12.4
2019-01-22T12:18:32.796Z,12.4
2019-01-22T12:19:32.848Z,9.5
2019-01-22T12:20:32.882Z,12.4
2019-01-22T12:21:32.796Z,12.4
2019-01-22T12:22:32.816Z,6.6
2019-01-22T12:23:32.803Z,6.6
2019-01-22T12:24:32.798Z,9.5
2019-01-22T12:25:32.837Z,6.6
2019-01-22T12:26:32.794Z,6.6
2019-01-22T12:27:32.794Z,6.6
2019-01-22T12:28:32.782Z,1.8
2019-01-22T12:29:32.793Z,6.6
2019-01-22T12:30:32.980Z,6.6
2019-01-22T12:31:35.782Z,9.5
2019-01-22T12:32:35.141Z,6.6
2019-01-22T12:33:36.183Z,6.6
2019-01-22T12:34:33.591Z,3.9
2019-01-22T12:35:32.827Z,6.6
2019-01-22T12:36:35.219Z,6.6
2019-01-22T12:37:35.103Z,3.9
2019-01-22T12:38:36.198Z,3.9
2019-01-22T12:39:34.266Z,9.5
2019-01-22T12:40:34.166Z,12.4
2019-01-22T12:41:34.168Z,3.9
2019-01-22T12:42:34.303Z,9.5
2019-01-22T12:43:37.025Z,9.5
2019-01-22T12:44:34.873Z,3.9
2019-01-22T12:45:34.469Z,6.6
2019-01-22T12:46:37.189Z,9.5
2019-01-22T12:47:34.837Z,6.6
2019-01-22T12:48:35.141Z,3.9
2019-01-22T12:49:33.026Z,9.5
2019-01-22T12:50:33.242Z,12.4
2019-01-22T12:51:34.221Z,9.5
2019-01-22T12:52:34.950Z,9.5
2019-01-22T12:53:34.801Z,9.5
2019-01-22T12:54:33.231Z,9.5
2019-01-22T12:55:33.682Z,9.5
2019-01-22T12:56:34.239Z,3.9
2019-01-22T12:57:35.397Z,9.5
2019-01-22T12:58:35.243Z,9.5
2019-01-22T12:59:34.997Z,12.4
2019-01-22T13:00:34.095Z,6.6
2019-01-22T13:01:34.526Z,6.6
2019-01-22T13:02:33.980Z,3.9
2019-01-22T13:03:35.080Z,3.9
2019-01-22T13:04:33.570Z,6.6
2019-01-22T13:05:33.904Z,6.6
2019-01-22T13:06:32.941Z,12.4
2019-01-22T13:07:33.121Z,12.4
2019-01-22T13:08:32.807Z,12.4
2019-01-22T13:09:32.822Z,6.6
2019-01-22T13:10:32.796Z,3.9
2019-01-22T13:11:32.862Z,6.6
2019-01-22T13:12:34.088Z,6.6
2019-01-22T13:13:34.585Z,9.5
2019-01-22T13:14:32.929Z,12.4
2019-01-22T13:15:32.837Z,12.4
2019-01-22T13:16:32.801Z,9.5
2019-01-22T13:17:32.790Z,6.6
2019-01-22T13:18:32.793Z,6.6
2019-01-22T13:19:32.880Z,6.6
2019-01-22T13:20:32.824Z,3.9
2019-01-22T13:21:32.759Z,6.6
2019-01-22T13:22:32.745Z,9.5
2019-01-22T13:23:32.797Z,9.5
2019-01-22T13:24:32.813Z,12.4
2019-01-22T13:25:33.369Z,12.4
2019-01-22T13:26:33.236Z,9.5
2019-01-22T13:27:33.729Z,6.6
2019-01-22T13:28:33.274Z,9.5
2019-01-22T13:29:32.813Z,6.6
2019-01-22T13:30:33.981Z,9.5
2019-01-22T13:31:33.100Z,12.4
2019-01-22T13:32:32.795Z,12.4
2019-01-22T13:33:33.034Z,9.5
2019-01-22T13:34:32.866Z,9.5
2019-01-22T13:35:33.310Z,6.6
2019-01-22T13:36:32.809Z,12.4
2019-01-22T13:37:32.763Z,12.4
2019-01-22T13:38:33.660Z,12.4
2019-01-22T13:39:32.865Z,18.3
2019-01-22T13:40:32.765Z,9.5
2019-01-22T13:41:32.870Z,9.5
2019-01-22T13:42:33.136Z,12.4
2019-01-22T13:43:33.020Z,12.4
2019-01-22T13:44:33.329Z,18.3
2019-01-22T13:45:32.796Z,15.4
2019-01-22T13:46:33.147Z,15.4
2019-01-22T13:47:33.318Z,15.4
2019-01-22T13:48:32.797Z,15.4
2019-01-22T13:49:33.132Z,18.3
2019-01-22T13:50:34.106Z,12.4
2019-01-22T13:51:32.998Z,12.4
2019-01-22T13:52:33.093Z,9.5
2019-01-22T13:53:33.112Z,6.6
2019-01-22T13:54:33.270Z,6.6